sensor_id;sensor_type;location;lat;lon;timestamp;pressure;altitude;pressure_sealevel;temperature;humidity
76074;BME280;64776;42.636;24.358;2023-04-10T00:02:45;90164.56;;;4.10;84.59
76074;BME280;64776;42.636;24.358;2023-04-10T00:05:46;90170.50;;;4.01;83.72
76074;BME280;64776;42.636;24.358;2023-04-10T00:08:46;90175.25;;;3.72;84.78
76074;BME280;64776;42.636;24.358;2023-04-10T00:11:47;90174.28;;;3.79;85.70
76074;BME280;64776;42.636;24.358;2023-04-10T00:14:49;90172.38;;;3.79;85.08
76074;BME280;64776;42.636;24.358;2023-04-10T00:17:50;90171.22;;;3.80;84.66
76074;BME280;64776;42.636;24.358;2023-04-10T00:20:51;90162.44;;;3.83;84.71
76074;BME280;64776;42.636;24.358;2023-04-10T00:23:52;90167.47;;;3.69;85.40
76074;BME280;64776;42.636;24.358;2023-04-10T00:26:52;90153.41;;;3.72;85.00
76074;BME280;64776;42.636;24.358;2023-04-10T00:29:55;90160.00;;;3.89;84.95
76074;BME280;64776;42.636;24.358;2023-04-10T00:32:55;90155.22;;;3.75;85.40
76074;BME280;64776;42.636;24.358;2023-04-10T00:35:56;90145.38;;;3.75;85.38
76074;BME280;64776;42.636;24.358;2023-04-10T00:38:57;90144.16;;;3.89;84.94
76074;BME280;64776;42.636;24.358;2023-04-10T00:41:58;90139.19;;;3.91;84.48
76074;BME280;64776;42.636;24.358;2023-04-10T00:45:00;90138.00;;;3.92;84.27
76074;BME280;64776;42.636;24.358;2023-04-10T00:48:02;90136.25;;;3.89;84.76
76074;BME280;64776;42.636;24.358;2023-04-10T00:51:03;90124.81;;;3.70;85.20
76074;BME280;64776;42.636;24.358;2023-04-10T00:54:05;90128.34;;;3.55;86.27
76074;BME280;64776;42.636;24.358;2023-04-10T00:57:07;90122.41;;;3.42;86.66
76074;BME280;64776;42.636;24.358;2023-04-10T01:00:11;90109.28;;;3.16;87.19
76074;BME280;64776;42.636;24.358;2023-04-10T01:03:12;90108.00;;;3.34;86.37
76074;BME280;64776;42.636;24.358;2023-04-10T01:06:20;90100.00;;;3.24;87.10
76074;BME280;64776;42.636;24.358;2023-04-10T01:09:34;90107.66;;;2.97;87.93
76074;BME280;64776;42.636;24.358;2023-04-10T01:12:45;90106.41;;;2.64;89.19
76074;BME280;64776;42.636;24.358;2023-04-10T01:15:57;90108.03;;;2.49;89.93
76074;BME280;64776;42.636;24.358;2023-04-10T01:19:09;90099.81;;;2.60;89.52
76074;BME280;64776;42.636;24.358;2023-04-10T01:22:15;90105.47;;;2.58;89.28
76074;BME280;64776;42.636;24.358;2023-04-10T01:25:31;90095.25;;;2.60;89.08
76074;BME280;64776;42.636;24.358;2023-04-10T01:28:50;90097.59;;;2.58;88.54
76074;BME280;64776;42.636;24.358;2023-04-10T01:31:53;90105.72;;;2.51;89.21
76074;BME280;64776;42.636;24.358;2023-04-10T01:34:57;90115.06;;;2.52;88.87
76074;BME280;64776;42.636;24.358;2023-04-10T01:38:04;90113.59;;;2.51;88.76
76074;BME280;64776;42.636;24.358;2023-04-10T01:41:06;90115.69;;;2.56;88.25
76074;BME280;64776;42.636;24.358;2023-04-10T01:44:11;90113.59;;;2.51;87.93
76074;BME280;64776;42.636;24.358;2023-04-10T01:47:14;90114.88;;;2.34;88.33
76074;BME280;64776;42.636;24.358;2023-04-10T01:50:16;90110.88;;;2.42;88.49
76074;BME280;64776;42.636;24.358;2023-04-10T01:53:17;90116.88;;;2.30;88.74
76074;BME280;64776;42.636;24.358;2023-04-10T01:56:18;90116.09;;;2.17;89.29
76074;BME280;64776;42.636;24.358;2023-04-10T01:59:21;90114.09;;;2.08;89.07
76074;BME280;64776;42.636;24.358;2023-04-10T02:02:22;90110.72;;;1.95;89.06
76074;BME280;64776;42.636;24.358;2023-04-10T02:05:29;90116.09;;;2.04;88.99
76074;BME280;64776;42.636;24.358;2023-04-10T02:08:35;90116.41;;;2.06;88.67
76074;BME280;64776;42.636;24.358;2023-04-10T02:11:41;90110.75;;;2.08;88.33
76074;BME280;64776;42.636;24.358;2023-04-10T02:14:46;90110.44;;;2.06;88.45
76074;BME280;64776;42.636;24.358;2023-04-10T02:17:56;90103.38;;;2.15;87.66
76074;BME280;64776;42.636;24.358;2023-04-10T02:20:58;90102.88;;;2.20;87.42
76074;BME280;64776;42.636;24.358;2023-04-10T02:23:59;90100.63;;;2.19;86.95
76074;BME280;64776;42.636;24.358;2023-04-10T02:27:00;90097.91;;;2.10;86.72
76074;BME280;64776;42.636;24.358;2023-04-10T02:30:03;90096.22;;;2.03;86.66
76074;BME280;64776;42.636;24.358;2023-04-10T02:33:04;90098.00;;;1.94;86.44
76074;BME280;64776;42.636;24.358;2023-04-10T02:36:06;90096.63;;;2.02;86.18
76074;BME280;64776;42.636;24.358;2023-04-10T02:39:07;90099.66;;;1.88;85.65
76074;BME280;64776;42.636;24.358;2023-04-10T02:42:08;90099.31;;;1.86;85.91
76074;BME280;64776;42.636;24.358;2023-04-10T02:45:10;90098.75;;;1.65;86.13
76074;BME280;64776;42.636;24.358;2023-04-10T02:48:11;90099.78;;;1.55;86.31
76074;BME280;64776;42.636;24.358;2023-04-10T02:51:12;90112.44;;;1.60;86.52
76074;BME280;64776;42.636;24.358;2023-04-10T02:54:13;90099.09;;;1.67;86.40
76074;BME280;64776;42.636;24.358;2023-04-10T02:57:14;90099.41;;;1.70;86.29
76074;BME280;64776;42.636;24.358;2023-04-10T03:00:17;90090.75;;;1.56;87.12
76074;BME280;64776;42.636;24.358;2023-04-10T03:03:18;90097.19;;;1.68;86.80
76074;BME280;64776;42.636;24.358;2023-04-10T03:06:19;90086.53;;;1.59;86.77
76074;BME280;64776;42.636;24.358;2023-04-10T03:09:20;90094.31;;;1.50;87.11
76074;BME280;64776;42.636;24.358;2023-04-10T03:12:20;90097.53;;;1.41;87.75
76074;BME280;64776;42.636;24.358;2023-04-10T03:15:23;90099.31;;;1.44;87.70
76074;BME280;64776;42.636;24.358;2023-04-10T03:18:23;90105.16;;;1.52;87.87
76074;BME280;64776;42.636;24.358;2023-04-10T03:21:24;90102.75;;;1.29;87.37
76074;BME280;64776;42.636;24.358;2023-04-10T03:24:25;90107.47;;;1.21;88.18
76074;BME280;64776;42.636;24.358;2023-04-10T03:27:26;90101.09;;;1.35;87.68
76074;BME280;64776;42.636;24.358;2023-04-10T03:30:28;90103.94;;;1.40;87.83
76074;BME280;64776;42.636;24.358;2023-04-10T03:33:29;90103.94;;;1.40;88.26
76074;BME280;64776;42.636;24.358;2023-04-10T03:36:30;90100.16;;;1.41;88.10
76074;BME280;64776;42.636;24.358;2023-04-10T03:39:30;90100.16;;;1.41;88.42
76074;BME280;64776;42.636;24.358;2023-04-10T03:42:31;90096.69;;;1.44;88.52
76074;BME280;64776;42.636;24.358;2023-04-10T03:45:33;90099.25;;;1.48;88.71
76074;BME280;64776;42.636;24.358;2023-04-10T03:48:34;90103.75;;;1.47;88.71
76074;BME280;64776;42.636;24.358;2023-04-10T03:51:35;90092.44;;;1.50;88.38
76074;BME280;64776;42.636;24.358;2023-04-10T03:54:36;90101.78;;;1.51;88.83
76074;BME280;64776;42.636;24.358;2023-04-10T03:57:37;90102.94;;;1.50;88.84
76074;BME280;64776;42.636;24.358;2023-04-10T04:00:39;90097.03;;;1.46;88.99
76074;BME280;64776;42.636;24.358;2023-04-10T04:03:40;90103.59;;;1.54;89.10
76074;BME280;64776;42.636;24.358;2023-04-10T04:06:40;90101.13;;;1.47;88.90
76074;BME280;64776;42.636;24.358;2023-04-10T04:09:41;90111.31;;;1.45;89.84
76074;BME280;64776;42.636;24.358;2023-04-10T04:12:42;90109.13;;;1.44;89.19
76074;BME280;64776;42.636;24.358;2023-04-10T04:15:44;90107.34;;;1.53;89.00
76074;BME280;64776;42.636;24.358;2023-04-10T04:18:45;90108.19;;;1.50;88.99
76074;BME280;64776;42.636;24.358;2023-04-10T04:21:46;90108.84;;;1.54;88.92
76074;BME280;64776;42.636;24.358;2023-04-10T04:24:47;90112.13;;;1.58;88.98
76074;BME280;64776;42.636;24.358;2023-04-10T04:27:48;90111.28;;;1.61;88.75
76074;BME280;64776;42.636;24.358;2023-04-10T04:30:50;90105.59;;;1.63;88.99
76074;BME280;64776;42.636;24.358;2023-04-10T04:33:52;90110.25;;;1.72;88.73
76074;BME280;64776;42.636;24.358;2023-04-10T04:36:52;90104.38;;;1.80;88.30
76074;BME280;64776;42.636;24.358;2023-04-10T04:39:53;90114.78;;;1.84;88.26
76074;BME280;64776;42.636;24.358;2023-04-10T04:42:54;90115.44;;;1.88;87.74
76074;BME280;64776;42.636;24.358;2023-04-10T04:45:56;90115.75;;;1.90;87.48
76074;BME280;64776;42.636;24.358;2023-04-10T04:48:57;90115.25;;;1.95;87.52
76074;BME280;64776;42.636;24.358;2023-04-10T04:51:58;90111.03;;;1.85;87.58
76074;BME280;64776;42.636;24.358;2023-04-10T04:54:58;90110.81;;;1.92;87.68
76074;BME280;64776;42.636;24.358;2023-04-10T04:57:59;90114.59;;;1.91;87.92
76074;BME280;64776;42.636;24.358;2023-04-10T05:01:02;90110.72;;;1.95;87.54
76074;BME280;64776;42.636;24.358;2023-04-10T05:04:02;90116.72;;;1.96;87.08
76074;BME280;64776;42.636;24.358;2023-04-10T05:07:03;90119.44;;;1.92;87.86
76074;BME280;64776;42.636;24.358;2023-04-10T05:10:05;90115.25;;;2.07;87.61
76074;BME280;64776;42.636;24.358;2023-04-10T05:13:06;90110.09;;;2.04;88.02
76074;BME280;64776;42.636;24.358;2023-04-10T05:16:08;90117.06;;;1.98;87.96
76074;BME280;64776;42.636;24.358;2023-04-10T05:19:09;90120.41;;;1.98;88.25
76074;BME280;64776;42.636;24.358;2023-04-10T05:22:10;90120.53;;;2.07;88.02
76074;BME280;64776;42.636;24.358;2023-04-10T05:25:11;90123.06;;;2.11;88.04
76074;BME280;64776;42.636;24.358;2023-04-10T05:28:12;90122.97;;;2.27;87.95
76074;BME280;64776;42.636;24.358;2023-04-10T05:31:14;90121.50;;;2.26;87.70
76074;BME280;64776;42.636;24.358;2023-04-10T05:34:15;90125.72;;;2.36;87.28
76074;BME280;64776;42.636;24.358;2023-04-10T05:37:15;90125.50;;;2.18;87.93
76074;BME280;64776;42.636;24.358;2023-04-10T05:40:16;90122.22;;;2.14;88.69
76074;BME280;64776;42.636;24.358;2023-04-10T05:43:17;90128.84;;;2.06;89.40
76074;BME280;64776;42.636;24.358;2023-04-10T05:46:19;90133.91;;;2.25;88.92
76074;BME280;64776;42.636;24.358;2023-04-10T05:49:20;90132.88;;;2.35;89.01
76074;BME280;64776;42.636;24.358;2023-04-10T05:52:21;90134.88;;;2.44;88.35
76074;BME280;64776;42.636;24.358;2023-04-10T05:55:22;90133.63;;;2.61;87.56
76074;BME280;64776;42.636;24.358;2023-04-10T05:58:22;90131.28;;;2.76;87.91
76074;BME280;64776;42.636;24.358;2023-04-10T06:01:25;90130.09;;;2.89;87.65
76074;BME280;64776;42.636;24.358;2023-04-10T06:04:26;90133.59;;;2.86;87.16
76074;BME280;64776;42.636;24.358;2023-04-10T06:07:27;90128.72;;;2.97;87.05
76074;BME280;64776;42.636;24.358;2023-04-10T06:10:28;90124.13;;;3.36;82.45
76074;BME280;64776;42.636;24.358;2023-04-10T06:13:29;90125.44;;;3.40;82.82
76074;BME280;64776;42.636;24.358;2023-04-10T06:16:31;90125.34;;;3.44;83.86
76074;BME280;64776;42.636;24.358;2023-04-10T06:19:32;90122.44;;;3.29;84.94
76074;BME280;64776;42.636;24.358;2023-04-10T06:22:32;90129.56;;;3.41;83.10
76074;BME280;64776;42.636;24.358;2023-04-10T06:25:33;90118.72;;;3.61;82.26
76074;BME280;64776;42.636;24.358;2023-04-10T06:28:34;90113.66;;;3.66;80.94
76074;BME280;64776;42.636;24.358;2023-04-10T06:31:37;90118.97;;;3.75;80.92
76074;BME280;64776;42.636;24.358;2023-04-10T06:34:37;90128.03;;;3.87;78.82
76074;BME280;64776;42.636;24.358;2023-04-10T06:37:38;90125.81;;;4.07;79.35
76074;BME280;64776;42.636;24.358;2023-04-10T06:40:39;90124.44;;;4.24;79.03
76074;BME280;64776;42.636;24.358;2023-04-10T06:43:40;90120.47;;;4.29;78.59
76074;BME280;64776;42.636;24.358;2023-04-10T06:46:42;90132.66;;;4.26;78.12
76074;BME280;64776;42.636;24.358;2023-04-10T06:49:43;90140.28;;;4.24;76.77
76074;BME280;64776;42.636;24.358;2023-04-10T06:52:44;90126.28;;;4.45;78.38
76074;BME280;64776;42.636;24.358;2023-04-10T06:55:45;90134.50;;;4.17;79.49
76074;BME280;64776;42.636;24.358;2023-04-10T06:58:46;90139.72;;;4.29;78.62
76074;BME280;64776;42.636;24.358;2023-04-10T07:01:48;90134.34;;;4.42;78.35
76074;BME280;64776;42.636;24.358;2023-04-10T07:04:50;90132.53;;;4.30;77.28
76074;BME280;64776;42.636;24.358;2023-04-10T07:07:50;90137.97;;;4.35;77.96
76074;BME280;64776;42.636;24.358;2023-04-10T07:10:51;90134.56;;;4.56;77.49
76074;BME280;64776;42.636;24.358;2023-04-10T07:13:52;90132.75;;;4.44;76.63
76074;BME280;64776;42.636;24.358;2023-04-10T07:16:55;90141.28;;;4.48;76.54
76074;BME280;64776;42.636;24.358;2023-04-10T07:19:56;90135.56;;;4.50;75.90
76074;BME280;64776;42.636;24.358;2023-04-10T07:22:57;90139.47;;;4.67;76.73
76074;BME280;64776;42.636;24.358;2023-04-10T07:25:57;90142.91;;;4.85;76.14
76074;BME280;64776;42.636;24.358;2023-04-10T07:28:58;90147.59;;;4.90;75.27
76074;BME280;64776;42.636;24.358;2023-04-10T07:32:00;90148.63;;;4.84;75.42
76074;BME280;64776;42.636;24.358;2023-04-10T07:35:01;90143.25;;;4.97;77.01
76074;BME280;64776;42.636;24.358;2023-04-10T07:38:02;90157.38;;;5.03;75.75
76074;BME280;64776;42.636;24.358;2023-04-10T07:41:03;90141.31;;;4.88;75.02
76074;BME280;64776;42.636;24.358;2023-04-10T07:44:04;90144.97;;;4.90;74.56
76074;BME280;64776;42.636;24.358;2023-04-10T07:47:07;90151.47;;;5.08;73.98
76074;BME280;64776;42.636;24.358;2023-04-10T07:50:08;90136.84;;;5.34;73.90
76074;BME280;64776;42.636;24.358;2023-04-10T07:53:09;90146.72;;;5.51;74.26
76074;BME280;64776;42.636;24.358;2023-04-10T07:56:14;90155.09;;;5.41;72.80
76074;BME280;64776;42.636;24.358;2023-04-10T07:59:15;90145.97;;;5.33;73.06
76074;BME280;64776;42.636;24.358;2023-04-10T08:02:17;90145.56;;;5.43;73.32
76074;BME280;64776;42.636;24.358;2023-04-10T08:05:18;90152.03;;;5.60;71.62
76074;BME280;64776;42.636;24.358;2023-04-10T08:08:19;90152.31;;;5.53;71.43
76074;BME280;64776;42.636;24.358;2023-04-10T08:11:24;90144.47;;;5.32;73.24
76074;BME280;64776;42.636;24.358;2023-04-10T08:14:25;90148.63;;;5.42;72.01
76074;BME280;64776;42.636;24.358;2023-04-10T08:17:28;90140.41;;;5.67;72.67
76074;BME280;64776;42.636;24.358;2023-04-10T08:20:28;90145.16;;;5.99;70.95
76074;BME280;64776;42.636;24.358;2023-04-10T08:23:29;90137.78;;;6.30;71.23
76074;BME280;64776;42.636;24.358;2023-04-10T08:26:30;90140.03;;;6.74;70.09
76074;BME280;64776;42.636;24.358;2023-04-10T08:29:31;90138.53;;;6.73;67.30
76074;BME280;64776;42.636;24.358;2023-04-10T08:32:34;90144.47;;;6.58;69.02
76074;BME280;64776;42.636;24.358;2023-04-10T08:35:35;90137.09;;;6.63;67.28
76074;BME280;64776;42.636;24.358;2023-04-10T08:38:36;90138.28;;;6.62;66.51
76074;BME280;64776;42.636;24.358;2023-04-10T08:41:39;90141.66;;;6.71;66.54
76074;BME280;64776;42.636;24.358;2023-04-10T08:44:40;90129.28;;;7.01;66.69
76074;BME280;64776;42.636;24.358;2023-04-10T08:47:44;90129.34;;;6.92;66.11
76074;BME280;64776;42.636;24.358;2023-04-10T08:50:48;90126.22;;;7.26;66.71
76074;BME280;64776;42.636;24.358;2023-04-10T08:53:50;90116.47;;;7.56;65.65
76074;BME280;64776;42.636;24.358;2023-04-10T08:56:53;90122.56;;;7.47;63.97
76074;BME280;64776;42.636;24.358;2023-04-10T08:59:54;90119.78;;;7.65;63.38
76074;BME280;64776;42.636;24.358;2023-04-10T09:02:56;90130.28;;;7.83;64.67
76074;BME280;64776;42.636;24.358;2023-04-10T09:06:01;90120.75;;;7.29;63.08
76074;BME280;64776;42.636;24.358;2023-04-10T09:09:02;90109.47;;;7.44;62.69
76074;BME280;64776;42.636;24.358;2023-04-10T09:12:03;90103.44;;;7.81;61.59
76074;BME280;64776;42.636;24.358;2023-04-10T09:15:04;90098.78;;;7.76;61.26
76074;BME280;64776;42.636;24.358;2023-04-10T09:18:07;90104.38;;;8.31;59.05
76074;BME280;64776;42.636;24.358;2023-04-10T09:21:08;90109.81;;;7.98;61.24
76074;BME280;64776;42.636;24.358;2023-04-10T09:24:09;90091.03;;;8.16;61.71
76074;BME280;64776;42.636;24.358;2023-04-10T09:27:26;90096.88;;;8.06;60.11
76074;BME280;64776;42.636;24.358;2023-04-10T09:30:35;90096.88;;;7.91;61.25
76074;BME280;64776;42.636;24.358;2023-04-10T09:33:38;90087.13;;;8.27;61.62
76074;BME280;64776;42.636;24.358;2023-04-10T09:36:39;90081.63;;;8.15;59.35
76074;BME280;64776;42.636;24.358;2023-04-10T09:39:40;90087.13;;;8.27;62.34
76074;BME280;64776;42.636;24.358;2023-04-10T09:42:41;90086.66;;;8.72;59.66
76074;BME280;64776;42.636;24.358;2023-04-10T09:45:46;90078.53;;;8.61;58.14
76074;BME280;64776;42.636;24.358;2023-04-10T09:48:54;90071.34;;;8.08;58.42
76074;BME280;64776;42.636;24.358;2023-04-10T09:51:56;90078.94;;;7.63;59.55
76074;BME280;64776;42.636;24.358;2023-04-10T09:54:57;90068.19;;;7.81;60.36
76074;BME280;64776;42.636;24.358;2023-04-10T09:57:59;90073.19;;;7.64;58.96
76074;BME280;64776;42.636;24.358;2023-04-10T10:01:00;90070.94;;;7.48;59.83
76074;BME280;64776;42.636;24.358;2023-04-10T10:04:03;90074.19;;;7.52;59.28
76074;BME280;64776;42.636;24.358;2023-04-10T10:07:04;90068.28;;;7.48;60.21
76074;BME280;64776;42.636;24.358;2023-04-10T10:10:06;90074.41;;;7.16;60.08
76074;BME280;64776;42.636;24.358;2023-04-10T10:13:07;90063.75;;;7.25;61.04
76074;BME280;64776;42.636;24.358;2023-04-10T10:16:14;90061.97;;;7.22;60.54
76074;BME280;64776;42.636;24.358;2023-04-10T10:19:26;90058.19;;;7.14;58.99
76074;BME280;64776;42.636;24.358;2023-04-10T10:22:28;90062.41;;;6.97;62.05
76074;BME280;64776;42.636;24.358;2023-04-10T10:25:30;90050.41;;;7.10;59.40
76074;BME280;64776;42.636;24.358;2023-04-10T10:28:32;90045.59;;;7.23;59.99
76074;BME280;64776;42.636;24.358;2023-04-10T10:31:33;90051.09;;;7.20;58.74
76074;BME280;64776;42.636;24.358;2023-04-10T10:34:36;90051.22;;;7.64;59.37
76074;BME280;64776;42.636;24.358;2023-04-10T10:37:38;90042.50;;;7.63;59.92
76074;BME280;64776;42.636;24.358;2023-04-10T10:40:43;90044.19;;;7.75;58.67
76074;BME280;64776;42.636;24.358;2023-04-10T10:43:52;90052.22;;;7.66;60.19
76074;BME280;64776;42.636;24.358;2023-04-10T10:47:02;90035.16;;;7.44;58.38
76074;BME280;64776;42.636;24.358;2023-04-10T10:50:07;90036.00;;;7.26;59.48
76074;BME280;64776;42.636;24.358;2023-04-10T10:53:08;90036.94;;;7.23;60.78
76074;BME280;64776;42.636;24.358;2023-04-10T10:56:32;90041.19;;;7.44;60.93
76074;BME280;64776;42.636;24.358;2023-04-10T10:59:55;90031.00;;;7.66;58.63
76074;BME280;64776;42.636;24.358;2023-04-10T11:03:25;90033.03;;;8.00;58.52
76074;BME280;64776;42.636;24.358;2023-04-10T11:06:48;90031.56;;;7.70;59.17
76074;BME280;64776;42.636;24.358;2023-04-10T11:09:50;90036.31;;;7.66;61.19
76074;BME280;64776;42.636;24.358;2023-04-10T11:13:14;90046.66;;;7.64;64.70
76074;BME280;64776;42.636;24.358;2023-04-10T11:16:15;90043.28;;;7.40;64.51
76074;BME280;64776;42.636;24.358;2023-04-10T11:19:16;90045.50;;;7.42;65.80
76074;BME280;64776;42.636;24.358;2023-04-10T11:22:18;90050.53;;;7.16;66.88
76074;BME280;64776;42.636;24.358;2023-04-10T11:25:19;90052.34;;;7.33;68.76
76074;BME280;64776;42.636;24.358;2023-04-10T11:28:41;90053.69;;;7.67;67.46
76074;BME280;64776;42.636;24.358;2023-04-10T11:31:42;90058.06;;;7.32;66.45
76074;BME280;64776;42.636;24.358;2023-04-10T11:34:43;90070.25;;;6.58;68.43
76074;BME280;64776;42.636;24.358;2023-04-10T11:37:46;90064.28;;;6.49;70.09
76074;BME280;64776;42.636;24.358;2023-04-10T11:40:54;90064.66;;;6.56;70.39
76074;BME280;64776;42.636;24.358;2023-04-10T11:43:55;90068.28;;;6.35;69.26
76074;BME280;64776;42.636;24.358;2023-04-10T11:46:56;90088.09;;;5.89;73.98
76074;BME280;64776;42.636;24.358;2023-04-10T11:49:57;90087.94;;;5.29;76.26
76074;BME280;64776;42.636;24.358;2023-04-10T11:53:00;90066.59;;;5.24;75.35
76074;BME280;64776;42.636;24.358;2023-04-10T11:56:01;90061.91;;;5.28;76.90
76074;BME280;64776;42.636;24.358;2023-04-10T11:59:01;90043.81;;;5.44;77.72
76074;BME280;64776;42.636;24.358;2023-04-10T12:02:04;90047.91;;;5.82;76.04
76074;BME280;64776;42.636;24.358;2023-04-10T12:05:06;90030.38;;;6.11;77.34
76074;BME280;64776;42.636;24.358;2023-04-10T12:08:08;90023.84;;;6.30;73.32
76074;BME280;64776;42.636;24.358;2023-04-10T12:11:09;90012.75;;;6.74;74.15
76074;BME280;64776;42.636;24.358;2023-04-10T12:14:10;90011.38;;;7.25;69.31
76074;BME280;64776;42.636;24.358;2023-04-10T12:17:11;90000.97;;;8.18;74.51
76074;BME280;64776;42.636;24.358;2023-04-10T12:20:13;89990.25;;;8.77;70.28
76074;BME280;64776;42.636;24.358;2023-04-10T12:23:16;89988.88;;;8.81;60.73
76074;BME280;64776;42.636;24.358;2023-04-10T12:26:17;89985.53;;;8.86;62.12
76074;BME280;64776;42.636;24.358;2023-04-10T12:29:18;89983.78;;;8.98;59.51
76074;BME280;64776;42.636;24.358;2023-04-10T12:32:19;89974.25;;;9.12;57.61
76074;BME280;64776;42.636;24.358;2023-04-10T12:35:36;89974.78;;;9.81;59.42
76074;BME280;64776;42.636;24.358;2023-04-10T12:38:39;89965.75;;;9.73;55.54
76074;BME280;64776;42.636;24.358;2023-04-10T12:41:40;89954.31;;;9.67;57.17
76074;BME280;64776;42.636;24.358;2023-04-10T12:44:52;89949.09;;;9.78;58.91
76074;BME280;64776;42.636;24.358;2023-04-10T12:47:53;89954.50;;;9.18;57.21
76074;BME280;64776;42.636;24.358;2023-04-10T12:50:53;89959.94;;;8.69;61.72
76074;BME280;64776;42.636;24.358;2023-04-10T12:53:56;89959.88;;;9.03;58.36
76074;BME280;64776;42.636;24.358;2023-04-10T12:56:57;89960.03;;;9.15;64.18
76074;BME280;64776;42.636;24.358;2023-04-10T12:59:58;89967.31;;;8.79;60.54
76074;BME280;64776;42.636;24.358;2023-04-10T13:02:59;89968.34;;;8.33;60.61
76074;BME280;64776;42.636;24.358;2023-04-10T13:06:04;89967.44;;;8.36;60.05
76074;BME280;64776;42.636;24.358;2023-04-10T13:09:07;89958.81;;;8.41;61.54
76074;BME280;64776;42.636;24.358;2023-04-10T13:12:08;89948.88;;;8.76;61.90
76074;BME280;64776;42.636;24.358;2023-04-10T13:15:09;89952.66;;;9.04;59.99
76074;BME280;64776;42.636;24.358;2023-04-10T13:18:10;89955.53;;;8.66;60.24
76074;BME280;64776;42.636;24.358;2023-04-10T13:21:11;89958.00;;;8.05;64.21
76074;BME280;64776;42.636;24.358;2023-04-10T13:24:13;89956.06;;;8.06;64.46
76074;BME280;64776;42.636;24.358;2023-04-10T13:27:14;89962.03;;;8.01;64.97
76074;BME280;64776;42.636;24.358;2023-04-10T13:30:14;89960.84;;;7.58;64.10
76074;BME280;64776;42.636;24.358;2023-04-10T13:33:15;89973.75;;;6.89;67.98
76074;BME280;64776;42.636;24.358;2023-04-10T13:36:16;89978.66;;;6.57;70.71
76074;BME280;64776;42.636;24.358;2023-04-10T13:39:18;89976.91;;;6.54;72.33
76074;BME280;64776;42.636;24.358;2023-04-10T13:42:19;89965.41;;;6.57;71.42
76074;BME280;64776;42.636;24.358;2023-04-10T13:45:20;89969.38;;;6.86;72.67
76074;BME280;64776;42.636;24.358;2023-04-10T13:48:20;89959.97;;;6.61;71.48
76074;BME280;64776;42.636;24.358;2023-04-10T13:51:21;89960.38;;;6.59;71.90
76074;BME280;64776;42.636;24.358;2023-04-10T13:54:25;89958.28;;;6.40;72.66
76074;BME280;64776;42.636;24.358;2023-04-10T13:57:26;89954.44;;;6.41;71.95
76074;BME280;64776;42.636;24.358;2023-04-10T14:00:27;89952.44;;;6.59;71.62
76074;BME280;64776;42.636;24.358;2023-04-10T14:03:27;89958.78;;;6.29;70.35
76074;BME280;64776;42.636;24.358;2023-04-10T14:06:28;89941.66;;;6.39;72.13
76074;BME280;64776;42.636;24.358;2023-04-10T14:09:30;89945.63;;;6.44;71.15
76074;BME280;64776;42.636;24.358;2023-04-10T14:12:31;89943.84;;;6.41;70.88
76074;BME280;64776;42.636;24.358;2023-04-10T14:15:32;89940.91;;;6.15;69.75
76074;BME280;64776;42.636;24.358;2023-04-10T14:18:34;89948.00;;;6.09;70.94
76074;BME280;64776;42.636;24.358;2023-04-10T14:21:35;89939.56;;;6.20;70.76
76074;BME280;64776;42.636;24.358;2023-04-10T14:24:38;89938.56;;;6.08;71.09
76074;BME280;64776;42.636;24.358;2023-04-10T14:27:38;89938.00;;;6.04;70.72
76074;BME280;64776;42.636;24.358;2023-04-10T14:30:39;89939.03;;;5.98;70.12
76074;BME280;64776;42.636;24.358;2023-04-10T14:33:40;89928.41;;;6.16;69.77
76074;BME280;64776;42.636;24.358;2023-04-10T14:36:41;89927.56;;;6.33;69.82
76074;BME280;64776;42.636;24.358;2023-04-10T14:39:43;89919.69;;;6.72;69.49
76074;BME280;64776;42.636;24.358;2023-04-10T14:42:44;89922.44;;;6.77;67.13
76074;BME280;64776;42.636;24.358;2023-04-10T14:45:45;89927.69;;;6.63;66.59
76074;BME280;64776;42.636;24.358;2023-04-10T14:48:45;89930.50;;;6.35;65.79
76074;BME280;64776;42.636;24.358;2023-04-10T14:51:46;89923.38;;;6.41;67.38
76074;BME280;64776;42.636;24.358;2023-04-10T14:54:49;89931.41;;;6.32;66.69
76074;BME280;64776;42.636;24.358;2023-04-10T14:57:49;89922.75;;;6.23;66.69
76074;BME280;64776;42.636;24.358;2023-04-10T15:00:50;89925.38;;;6.32;68.68
76074;BME280;64776;42.636;24.358;2023-04-10T15:03:51;89923.66;;;6.20;67.97
76074;BME280;64776;42.636;24.358;2023-04-10T15:06:52;89915.94;;;6.31;68.37
76074;BME280;64776;42.636;24.358;2023-04-10T15:09:56;89918.50;;;6.16;68.51
76074;BME280;64776;42.636;24.358;2023-04-10T15:12:57;89914.41;;;6.39;69.63
76074;BME280;64776;42.636;24.358;2023-04-10T15:15:58;89920.81;;;6.32;67.95
76074;BME280;64776;42.636;24.358;2023-04-10T15:18:59;89919.44;;;6.13;68.00
76074;BME280;64776;42.636;24.358;2023-04-10T15:22:00;89925.59;;;6.10;69.58
76074;BME280;64776;42.636;24.358;2023-04-10T15:25:02;89918.78;;;5.95;69.11
76074;BME280;64776;42.636;24.358;2023-04-10T15:28:03;89923.94;;;5.80;69.97
76074;BME280;64776;42.636;24.358;2023-04-10T15:31:04;89918.38;;;5.87;70.07
76074;BME280;64776;42.636;24.358;2023-04-10T15:34:06;89913.94;;;5.84;69.96
76074;BME280;64776;42.636;24.358;2023-04-10T15:37:06;89914.53;;;5.88;69.02
76074;BME280;64776;42.636;24.358;2023-04-10T15:40:09;89906.13;;;5.90;69.94
76074;BME280;64776;42.636;24.358;2023-04-10T15:43:11;89903.06;;;5.91;69.49
76074;BME280;64776;42.636;24.358;2023-04-10T15:46:12;89908.81;;;5.81;69.54
76074;BME280;64776;42.636;24.358;2023-04-10T15:49:12;89914.22;;;5.77;69.36
76074;BME280;64776;42.636;24.358;2023-04-10T15:52:13;89920.75;;;5.67;68.55
76074;BME280;64776;42.636;24.358;2023-04-10T15:55:16;89904.84;;;5.67;68.73
76074;BME280;64776;42.636;24.358;2023-04-10T15:58:16;89913.25;;;5.65;67.97
76074;BME280;64776;42.636;24.358;2023-04-10T16:01:17;89915.44;;;5.67;67.75
76074;BME280;64776;42.636;24.358;2023-04-10T16:04:18;89907.09;;;5.68;67.89
76074;BME280;64776;42.636;24.358;2023-04-10T16:07:19;89916.66;;;5.57;69.03